Data for 06/09/2008

Time Sea-Level Adjusted Pressure Absolute Pressure Temperature Relative Humidity Dew Point   
(mb) (inHg) (mb) (inHg) (C) (F) (%) (C) (F)
00:05 1019 30.09 848 25.04 6.6 43.8 70 1.6 34.8
00:10 1019 30.09 848 25.04 6.4 43.5 72 1.7 35
00:15 1019 30.09 848 25.04 6 42.8 72 1.4 34.6
00:20 1019 30.09 848 25.04 5.9 42.7 72 1.3 34.4
00:25 1019 30.09 848 25.04 5.9 42.5 73 1.3 34.4
00:30 1019 30.09 848 25.04 5.8 42.4 73 1.3 34.3
00:35 1019 30.09 848 25.04 5.9 42.6 71 1.1 33.9
00:40 1019 30.09 848 25.04 6 42.9 71 1.1 34
00:45 1019 30.09 848 25.04 6.2 43.1 69 0.9 33.7
00:50 1019 30.09 848 25.04 6.2 43.1 70 1 33.9
00:55 1019 30.09 848 25.04 6 42.7 71 1 33.8
01:00 1019 30.09 848 25.04 5.8 42.5 72 1.1 34
01:05 1019 30.09 848 25.04 5.5 41.9 72 0.9 33.6
01:10 1019 30.09 848 25.04 5.8 42.5 71 1 33.8
01:15 1019 30.09 848 25.04 5.7 42.3 72 1 33.8
01:20 1019 30.09 848 25.04 5.6 42 72 0.9 33.6
01:25 1019 30.09 848 25.04 5.8 42.4 71 0.8 33.5
01:30 1019 30.09 848 25.04 5.6 42.1 72 1 33.8
01:35 1019 30.09 848 25.04 5.2 41.4 74 1 33.8
01:40 1019 30.09 848 25.04 4.8 40.6 76 1 33.7
01:45 1019 30.09 848 25.04 4.5 40 78 0.9 33.6
01:50 1019 30.09 848 25.04 4.4 39.9 80 1.3 34.3
01:55 1019 30.09 848 25.04 4.3 39.8 81 1.3 34.3
02:00 1019 30.09 848 25.04 4.2 39.5 81 1.3 34.3
02:05 1019 30.09 848 25.04 4.1 39.4 81 1.2 34.2
02:10 1019 30.09 848 25.04 4 39.2 82 1.2 34.2
02:15 1019 30.09 848 25.04 4 39.1 82 1.1 34.1
02:20 1018 30.06 848 25.04 4 39.2 81 1.1 34
02:25 1018 30.06 848 25.04 4 39.3 81 1.1 33.9
02:30 1018 30.06 848 25.04 4.1 39.4 80 1 33.9
02:35 1018 30.06 848 25.04 4.1 39.4 80 1 33.7
02:40 1018 30.06 848 25.04 4.2 39.6 79 1 33.7
02:45 1018 30.06 847 25.01 4.2 39.5 79 0.9 33.6
02:50 1018 30.06 847 25.01 4.1 39.4 79 0.9 33.6
02:55 1018 30.06 847 25.01 3.9 39.1 80 0.8 33.5
03:00 1018 30.06 847 25.01 3.7 38.7 82 0.8 33.5
03:05 1018 30.06 847 25.01 3.3 37.9 84 0.9 33.5
03:10 1018 30.06 847 25.01 3 37.3 85 0.7 33.3
03:15 1018 30.06 847 25.01 2.9 37.2 86 0.7 33.3
03:20 1018 30.06 847 25.01 3 37.4 85 0.8 33.4
03:25 1018 30.06 847 25.01 3.1 37.5 85 0.8 33.5
03:30 1018 30.06 847 25.01 3.2 37.8 85 0.9 33.6
03:35 1018 30.06 847 25.01 3.4 38.2 83 0.9 33.5
03:40 1018 30.06 847 25.01 3.5 38.3 83 0.9 33.6
03:45 1018 30.06 847 25.01 3.4 38.2 83 0.8 33.5
03:50 1018 30.06 847 25.01 3.5 38.2 83 0.8 33.4
03:55 1018 30.06 847 25.01 3.5 38.3 82 0.8 33.4
04:00 1018 30.06 847 25.01 3.5 38.3 82 0.8 33.4
04:05 1018 30.06 847 25.01 3.4 38.1 83 0.7 33.3
04:10 1018 30.06 847 25.01 3 37.5 84 0.7 33.2
04:15 1018 30.06 847 25.01 2.7 36.9 85 0.5 32.9
04:20 1018 30.06 847 25.01 2.6 36.7 85 0.4 32.7
04:25 1018 30.06 847 25.01 2.5 36.5 85 0.3 32.6
04:30 1018 30.06 847 25.01 2.6 36.6 84 0.2 32.4
04:35 1018 30.06 847 25.01 2.9 37.3 83 0.3 32.5
04:40 1018 30.06 847 25.01 3.1 37.5 82 0.3 32.6
04:45 1018 30.06 847 25.01 3.1 37.6 82 0.3 32.5
04:50 1018 30.06 847 25.01 3.3 37.9 81 0.2 32.4
04:55 1018 30.06 847 25.01 3.5 38.3 80 0.3 32.6
05:00 1018 30.06 847 25.01 3.5 38.2 80 0.3 32.5
05:05 1018 30.06 847 25.01 3.5 38.3 79 0.2 32.4
05:10 1018 30.06 847 25.01 3.5 38.3 79 0.2 32.4
05:15 1018 30.06 847 25.01 3.3 37.9 81 0.3 32.5
05:20 1018 30.06 847 25.01 2.9 37.1 83 0.2 32.4
05:25 1018 30.06 847 25.01 2.5 36.5 84 0.1 32.2
05:30 1018 30.06 847 25.01 2.4 36.2 85 0.1 32.1
05:35 1018 30.06 847 25.01 2.4 36.4 84 0.1 32.1
05:40 1018 30.06 847 25.01 2.7 36.9 83 0.2 32.3
05:45 1018 30.06 847 25.01 2.8 37.1 83 0.2 32.4
05:50 1018 30.06 847 25.01 2.6 36.7 83 0.1 32.2
05:55 1018 30.06 847 25.01 2.6 36.6 83 0 32
06:00 1018 30.06 847 25.01 2.4 36.4 84 0 32
06:05 1018 30.06 847 25.01 2.4 36.3 85 0.1 32.1
06:10 1018 30.06 847 25.01 2.7 36.9 83 0.1 32.2
06:15 1018 30.06 847 25.01 3.1 37.6 82 0.3 32.5
06:20 1018 30.06 847 25.01 3.3 38 81 0.3 32.5
06:25 1018 30.06 847 25.01 3.6 38.4 80 0.5 32.8
06:30 1018 30.06 847 25.01 3.6 38.4 80 0.4 32.8
06:35 1018 30.06 847 25.01 3.7 38.7 79 0.4 32.7
06:40 1018 30.06 847 25.01 3.9 39 78 0.4 32.7
06:45 1018 30.06 847 25.01 3.9 39.1 78 0.5 32.8
06:50 1018 30.06 847 25.01 4.1 39.3 78 0.5 32.9
06:55 1018 30.06 847 25.01 4 39.3 78 0.5 32.9
07:00 1018 30.06 847 25.01 4.2 39.5 77 0.5 32.9
07:05 1018 30.06 847 25.01 4.4 40 76 0.5 32.9
07:10 1018 30.06 847 25.01 4.7 40.4 75 0.7 33.3
07:15 1018 30.06 847 25.01 5 41.1 74 0.8 33.5
07:20 1018 30.06 847 25.01 5.3 41.6 73 0.9 33.6
07:25 1018 30.06 847 25.01 5.7 42.3 72 1 33.8
07:30 1017 30.03 847 25.01 6.1 43 70 1.1 33.9
07:35 1017 30.03 847 25.01 6.4 43.6 69 1.1 34
07:40 1017 30.03 846 24.98 6.8 44.3 67 1.1 34
07:45 1017 30.03 846 24.98 7.4 45.4 65 1.3 34.3
07:50 1017 30.03 846 24.98 7.9 46.1 63 1.3 34.4
07:55 1017 30.03 846 24.98 8.2 46.8 63 1.7 35
08:00 1017 30.03 846 24.98 8.5 47.4 61 1.5 34.7
08:05 1017 30.03 846 24.98 8.9 48 59 1.5 34.7
08:10 1017 30.03 846 24.98 9.4 49 58 1.6 34.8
08:15 1017 30.03 846 24.98 9.8 49.6 55 1.3 34.3
08:20 1017 30.03 846 24.98 10.3 50.6 51 0.7 33.2
08:25 1017 30.03 846 24.98 11.1 52 51 1.4 34.5
08:30 1017 30.03 846 24.98 11.2 52.2 48 0.8 33.4
08:35 1017 30.03 846 24.98 11.4 52.6 44 -0.3 31.4
08:40 1017 30.03 846 24.98 11.7 53.1 45 0.2 32.4
08:45 1017 30.03 846 24.98 11.9 53.4 45 0.5 32.8
08:50 1017 30.03 846 24.98 11.6 52.8 46 0.4 32.7
08:55 1017 30.03 846 24.98 12 53.6 45 0.4 32.7
09:00 1017 30.03 846 24.98 11.9 53.4 45 0.3 32.5
09:05 1017 30.03 846 24.98 11.7 53.1 45 0.3 32.5
09:10 1017 30.03 846 24.98 12.2 53.9 45 0.5 32.9
09:15 1017 30.03 846 24.98 12.6 54.6 44 0.5 33
09:20 1017 30.03 846 24.98 12.8 55.1 42 0.3 32.6
09:25 1017 30.03 846 24.98 13.3 56 39 -0.3 31.5
09:30 1017 30.03 846 24.98 13.7 56.7 37 -0.6 30.9
09:35 1016 30 846 24.98 13.4 56.1 40 -0 31.9
09:40 1016 30 845 24.95 13.6 56.5 38 -0.4 31.2
09:45 1016 30 846 24.98 14 57.3 36 -0.6 30.9
09:50 1016 30 846 24.98 14.2 57.5 37 -0.2 31.6
09:55 1016 30 846 24.98 14.8 58.6 36 0.1 32.3
10:00 1016 30 846 24.98 15.1 59.2 36 0.3 32.5
10:05 1016 30 846 24.98 15 59.1 37 0.4 32.7
10:10 1016 30 846 24.98 15.2 59.3 34 -0.3 31.4
10:15 1016 30 845 24.95 14.8 58.6 35 -0.5 31.1
10:20 1016 30 845 24.95 15.7 60.3 34 0.1 32.2
10:25 1016 30 845 24.95 15 59 37 0.3 32.6
10:30 1016 30 845 24.95 13.8 56.8 40 0.4 32.6
10:35 1016 30 845 24.95 13.2 55.7 40 -0.1 31.8
10:40 1016 30 845 24.95 13.2 55.7 40 -0.1 31.8
10:45 1016 30 845 24.95 14 57.2 38 -0.2 31.7
10:50 1016 30 845 24.95 14.5 58.1 39 0.7 33.2
10:55 1016 30 845 24.95 14.8 58.6 39 1 33.7
11:00 1016 30 845 24.95 15.4 59.8 37 0.9 33.7
11:05 1016 30 845 24.95 16.1 60.9 36 1 33.8
11:10 1016 30 845 24.95 15.7 60.2 36 0.8 33.5
11:15 1016 30 845 24.95 16 60.9 35 0.6 33.2
11:20 1016 30 845 24.95 16 60.7 34 0.4 32.6
11:25 1016 30 845 24.95 15.6 60.1 35 0.4 32.7
11:30 1016 30 845 24.95 15.7 60.3 35 0.5 32.9
11:35 1016 30 845 24.95 15.7 60.3 35 0.4 32.8
11:40 1016 30 845 24.95 15.4 59.8 35 0.1 32.1
11:45 1016 30 845 24.95 15.8 60.4 34 0.1 32.1
11:50 1016 30 845 24.95 16 60.7 34 0.4 32.7
11:55 1016 30 845 24.95 15.5 59.8 35 0.2 32.3
12:00 1016 30 845 24.95 15.6 60.1 34 -0 31.9
12:05 1015 29.97 845 24.95 15.5 59.9 35 0.2 32.3
12:10 1015 29.97 845 24.95 15.9 60.7 36 0.8 33.4
12:15 1015 29.97 845 24.95 15.5 59.9 37 1 33.9
12:20 1015 29.97 844 24.92 16 60.8 34 0.1 32.1
12:25 1015 29.97 844 24.92 15.3 59.6 37 0.8 33.5
12:30 1015 29.97 844 24.92 15.9 60.6 34 0.1 32.3
12:35 1015 29.97 844 24.92 16.5 61.7 35 1.1 33.9
12:40 1015 29.97 844 24.92 17.2 62.9 30 -0.5 31.2
12:45 1015 29.97 844 24.92 17 62.5 29 -1 30.2
12:50 1015 29.97 844 24.92 17.4 63.3 28 -1.4 29.5
12:55 1015 29.97 844 24.92 17.4 63.4 27 -1.7 29
13:00 1015 29.97 844 24.92 17.6 63.7 28 -1.2 29.9
13:05 1015 29.97 844 24.92 17.5 63.6 28 -1.1 30
13:10 1015 29.97 844 24.92 17.4 63.4 31 0.2 32.4
13:15 1015 29.97 844 24.92 17.4 63.2 29 -0.7 30.7
13:20 1015 29.97 844 24.92 16.5 61.7 30 -1.1 30
13:25 1015 29.97 844 24.92 16.7 62 29 -1.3 29.7
13:30 1015 29.97 844 24.92 16.4 61.5 31 -0.7 30.7
13:35 1015 29.97 844 24.92 16.7 62.1 30 -0.9 30.4
13:40 1015 29.97 844 24.92 16.8 62.2 30 -0.8 30.5
13:45 1015 29.97 844 24.92 16.6 61.8 31 -0.4 31.3
13:50 1015 29.97 844 24.92 15.6 60.1 43 3.2 37.8
13:55 1015 29.97 844 24.92 13.6 56.4 49 3.1 37.6
14:00 1015 29.97 844 24.92 13.3 55.9 46 1.9 35.5
14:05 1015 29.97 844 24.92 13.3 55.9 45 1.7 35
14:10 1015 29.97 844 24.92 13.5 56.2 44 1.7 35
14:15 1015 29.97 844 24.92 13.7 56.6 44 1.6 34.9
14:20 1015 29.97 844 24.92 13.7 56.6 42 1.1 34.1
14:25 1015 29.97 844 24.92 13.8 56.9 42 1.2 34.2
14:30 1015 29.97 844 24.92 13.8 56.8 43 1.4 34.6
14:35 1014 29.94 844 24.92 14.1 57.3 46 2.9 37.2
14:40 1014 29.94 844 24.92 14.6 58.3 43 2.1 35.8
14:45 1014 29.94 844 24.92 14.3 57.7 45 2.5 36.6
14:50 1014 29.94 843 24.89 14.2 57.6 42 1.5 34.7
14:55 1014 29.94 844 24.92 14.6 58.4 42 2 35.7
15:00 1014 29.94 843 24.89 14.7 58.4 43 2.1 35.9
15:05 1014 29.94 843 24.89 14.7 58.5 42 2 35.6
15:10 1014 29.94 843 24.89 14.5 58.1 41 1.6 34.9
15:15 1014 29.94 843 24.89 14.4 58 41 1.5 34.6
15:20 1014 29.94 843 24.89 14.7 58.4 42 2.1 35.8
15:25 1014 29.94 843 24.89 15.1 59.1 39 1.3 34.4
15:30 1014 29.94 843 24.89 16 60.8 35 0.8 33.4
15:35 1014 29.94 843 24.89 16.3 61.4 35 0.8 33.4
15:40 1014 29.94 843 24.89 16 60.8 38 1.9 35.5
15:45 1013 29.91 843 24.89 15.9 60.7 38 1.7 35
15:50 1013 29.91 843 24.89 16.4 61.4 37 1.6 35
15:55 1013 29.91 842 24.86 16.3 61.4 37 1.9 35.3
16:00 1013 29.91 842 24.86 15.7 60.2 39 2 35.6
16:05 1013 29.91 842 24.86 15.4 59.8 41 2.4 36.3
16:10 1013 29.91 842 24.86 15.4 59.8 40 2 35.5
16:15 1013 29.91 842 24.86 15.4 59.7 41 2.3 36.2
16:20 1013 29.91 842 24.86 15.4 59.6 40 2 35.5
16:25 1013 29.91 842 24.86 15.8 60.4 39 1.9 35.5
16:30 1013 29.91 842 24.86 16.2 61.2 39 2.4 36.3
16:35 1013 29.91 842 24.86 16.7 62.1 37 2.1 35.8
16:40 1013 29.91 842 24.86 17.5 63.4 35 1.9 35.4
16:45 1013 29.91 842 24.86 17.8 64 34 2 35.6
16:50 1013 29.91 842 24.86 17.1 62.7 37 2.5 36.5
16:55 1013 29.91 842 24.86 17.1 62.9 38 2.7 36.9
17:00 1013 29.91 842 24.86 16.7 62.1 37 2.2 36
17:05 1012 29.88 842 24.86 17.5 63.5 35 2.2 35.9
17:10 1012 29.88 842 24.86 17.2 63 39 3.1 37.6
17:15 1012 29.88 842 24.86 16.6 61.9 39 2.7 36.9
17:20 1012 29.88 841 24.83 16.3 61.4 42 3.5 38.3
17:25 1012 29.88 841 24.83 15.9 60.5 43 3.5 38.3
17:30 1012 29.88 842 24.86 16 60.9 45 4.3 39.7
17:35 1012 29.88 842 24.86 16.1 60.9 49 5.6 42
17:40 1012 29.88 842 24.86 15.9 60.6 51 5.8 42.4
17:45 1012 29.88 842 24.86 15.2 59.3 54 6 42.8
17:50 1012 29.88 842 24.86 14.7 58.4 53 5.3 41.5
17:55 1012 29.88 842 24.86 14.7 58.4 49 4 39.2
18:00 1012 29.88 842 24.86 14.9 58.9 47 3.7 38.7
18:05 1012 29.88 842 24.86 14.4 57.9 50 4.1 39.4
18:10 1012 29.88 842 24.86 14.1 57.4 51 4.1 39.4
18:15 1012 29.88 841 24.83 14.1 57.3 49 3.5 38.4
18:20 1012 29.88 841 24.83 14 57.2 50 3.9 39
18:25 1012 29.88 841 24.83 14 57.2 52 4.2 39.6
18:30 1012 29.88 841 24.83 14 57.2 51 4 39.3
18:35 1012 29.88 841 24.83 14 57.2 51 4.2 39.6
18:40 1012 29.88 841 24.83 14 57.2 50 3.9 39.1
18:45 1012 29.88 841 24.83 13.9 57.1 52 4.3 39.7
18:50 1012 29.88 841 24.83 13.9 57 52 4.4 40
18:55 1012 29.88 841 24.83 13.8 56.8 52 4.3 39.8
19:00 1012 29.88 841 24.83 13.7 56.6 54 4.7 40.5
19:05 1012 29.88 841 24.83 13.7 56.7 54 4.7 40.4
19:10 1012 29.88 841 24.83 13.6 56.5 55 4.8 40.6
19:15 1012 29.88 841 24.83 13.6 56.5 54 4.6 40.3
19:20 1012 29.88 841 24.83 13.6 56.4 55 4.9 40.8
19:25 1012 29.88 841 24.83 13.6 56.6 53 4.4 40
19:30 1012 29.88 841 24.83 13.6 56.4 54 4.4 40
19:35 1011 29.85 841 24.83 13.6 56.4 54 4.4 39.9
19:40 1011 29.85 841 24.83 13.5 56.4 55 4.6 40.3
19:45 1011 29.85 841 24.83 13.6 56.5 56 5 41.1
19:50 1011 29.85 841 24.83 13.6 56.5 55 4.8 40.7
19:55 1011 29.85 841 24.83 13.5 56.4 56 5 41
20:00 1011 29.85 840 24.81 13.4 56.2 58 5.4 41.6
20:05 1011 29.85 840 24.81 13.4 56.2 59 5.5 42
20:10 1011 29.85 840 24.81 13.4 56.2 59 5.6 42.1
20:15 1011 29.85 840 24.81 13.5 56.2 60 5.8 42.5
20:20 1011 29.85 840 24.81 13.4 56 61 6 42.8
20:25 1011 29.85 840 24.81 13.2 55.7 63 6.5 43.7
20:30 1011 29.85 840 24.81 12.9 55.2 65 6.5 43.6
20:35 1011 29.85 840 24.81 12.6 54.7 68 6.8 44.3
20:40 1011 29.85 840 24.81 12.3 54.1 70 7 44.5
20:45 1011 29.85 840 24.81 12 53.5 71 6.9 44.4
20:50 1011 29.85 840 24.81 11.8 53.2 71 6.8 44.2
20:55 1010 29.83 840 24.81 11.6 52.9 71 6.6 43.9
21:00 1010 29.83 840 24.81 11.5 52.7 72 6.6 44
21:05 1010 29.83 840 24.81 11.4 52.5 71 6.4 43.5
21:10 1010 29.83 839 24.78 11.4 52.4 70 6.2 43.1
21:15 1010 29.83 839 24.78 11.3 52.3 72 6.4 43.5
21:20 1010 29.83 839 24.78 11.1 51.9 73 6.4 43.6
21:25 1010 29.83 839 24.78 10.8 51.5 73 6.3 43.3
21:30 1010 29.83 840 24.81 10.8 51.5 73 6.2 43.2
21:35 1010 29.83 840 24.81 10.8 51.5 75 6.6 43.8
21:40 1010 29.83 839 24.78 10.8 51.4 74 6.3 43.4
21:45 1010 29.83 839 24.78 10.8 51.5 73 6.2 43.1
21:50 1010 29.83 839 24.78 11 51.7 72 6.1 42.9
21:55 1010 29.83 839 24.78 11.1 51.9 71 6.1 43
22:00 1010 29.83 839 24.78 11 51.9 72 6.1 43
22:05 1010 29.83 839 24.78 10.9 51.6 72 6 42.9
22:10 1010 29.83 839 24.78 10.9 51.5 72 6 42.8
22:15 1010 29.83 839 24.78 10.8 51.4 72 6 42.8
22:20 1010 29.83 839 24.78 10.6 51 74 6.1 43
22:25 1010 29.83 839 24.78 10.3 50.6 74 6 42.8
22:30 1010 29.83 839 24.78 10.3 50.5 75 6 42.9
22:35 1010 29.83 839 24.78 10.1 50.1 76 6.1 42.9
22:40 1010 29.83 839 24.78 10 50 78 6.4 43.5
22:45 1010 29.83 839 24.78 10 50 78 6.4 43.4
22:50 1010 29.83 839 24.78 10 50.1 77 6.3 43.3
22:55 1010 29.83 839 24.78 10.1 50.1 77 6.2 43.2
23:00 1010 29.83 839 24.78 10.1 50.2 77 6.3 43.4
23:05 1010 29.83 839 24.78 10.1 50.2 77 6.3 43.3
23:10 1010 29.83 839 24.78 10.1 50.2 77 6.2 43.2
23:15 1010 29.83 839 24.78 10.2 50.3 76 6.2 43.2
23:20 1010 29.83 839 24.78 10.3 50.5 75 6.2 43.1
23:25 1010 29.83 839 24.78 10.4 50.6 75 6.2 43.1
23:30 1010 29.83 839 24.78 10.4 50.6 75 6.1 43
23:35 1010 29.83 839 24.78 10.3 50.6 75 6.1 43
23:40 1010 29.83 839 24.78 10.3 50.6 75 6 42.8
23:45 1010 29.83 839 24.78 10.3 50.6 75 6 42.9
23:50 1010 29.83 839 24.78 10.3 50.5 75 6 42.9
23:55 1010 29.83 839 24.78 10.2 50.4 75 6 42.8
24:00 1010 29.83 840 24.81 10.3 50.5 76 6.1 43.1